Time;durP1;ratioP1;P1;durP2;ratioP2;P2;SDS_P1;SDS_P2;PMS_P1;PMS_P2;Temp;Humidity;BMP_temperature;BMP_pressure;BME280_temperature;BME280_humidity;BME280_pressure;Samples;Min_cycle;Max_cycle;Signal;HPM_P1;HPM_P2
2023/04/17 00:01:35;;;;;;;;;;;7.60;99.90;;;;;;5007122;28;20013;-69
2023/04/17 00:04:01;;;;;;;;;;;7.60;99.90;;;;;;5007702;28;19932;-69
2023/04/17 00:06:26;;;;;;;;;;;7.60;99.90;;;;;;5008951;28;19929;-70
2023/04/17 00:08:52;;;;;;;;;;;7.60;99.90;;;;;;5006243;28;19968;-70
2023/04/17 00:11:18;;;;;;;;;;;7.60;99.90;;;;;;5003830;28;20346;-70
2023/04/17 00:13:43;;;;;;;;;;;7.50;99.90;;;;;;5008610;28;19951;-70
2023/04/17 00:16:11;;;;;;;;;;;7.50;99.90;;;;;;5011101;28;19944;-70
2023/04/17 00:18:37;;;;;;;;;;;7.60;99.90;;;;;;5011442;28;19926;-70
2023/04/17 00:21:02;;;;;;;;;;;7.60;99.90;;;;;;5003161;28;19925;-70
2023/04/17 00:23:28;;;;;;;;;;;7.60;99.90;;;;;;5002566;28;19948;-70
2023/04/17 00:25:53;;;;;;;;;;;7.60;99.90;;;;;;5010774;28;20324;-70
2023/04/17 00:28:19;;;;;;;;;;;7.60;99.90;;;;;;5010573;28;19930;-70
2023/04/17 00:30:45;;;;;;;;;;;7.60;99.90;;;;;;5011498;28;19987;-70
2023/04/17 00:33:11;;;;;;;;;;;7.40;99.90;;;;;;5013064;28;20424;-70
2023/04/17 00:35:36;;;;;;;;;;;7.60;99.90;;;;;;5003949;28;19925;-70
2023/04/17 00:38:02;;;;;;;;;;;7.50;99.90;;;;;;5003989;28;19957;-70
2023/04/17 00:40:27;;;;;;;;;;;7.40;99.90;;;;;;5009634;28;19926;-70
2023/04/17 00:42:58;;;;;;;;;;;7.50;99.90;;;;;;5010043;28;19936;-70
2023/04/17 00:45:23;;;;;;;;;;;7.50;99.90;;;;;;5009155;28;19943;-70
2023/04/17 00:47:50;;;;;;;;;;;7.70;99.90;;;;;;5012362;28;19934;-70
2023/04/17 00:50:15;;;;;;;;;;;7.60;99.90;;;;;;5010538;28;20017;-71
2023/04/17 00:52:41;;;;;;;;;;;7.50;99.90;;;;;;5002848;28;20341;-70
2023/04/17 00:55:07;;;;;;;;;;;7.50;99.90;;;;;;5005854;28;20025;-70
2023/04/17 00:57:33;;;;;;;;;;;7.40;99.90;;;;;;5004531;28;20016;-70
2023/04/17 01:00:00;;;;;;;;;;;7.50;99.90;;;;;;5003272;28;21352;-70
2023/04/17 01:02:25;;;;;;;;;;;7.40;99.90;;;;;;5006251;28;19979;-70
2023/04/17 01:04:51;;;;;;;;;;;7.60;99.90;;;;;;5004561;28;19926;-70
2023/04/17 01:07:17;;;;;;;;;;;7.40;99.90;;;;;;5006272;28;19971;-70
2023/04/17 01:09:42;;;;;;;;;;;7.40;99.90;;;;;;5007423;28;19925;-70
2023/04/17 01:12:21;;;;;;;;;;;7.50;99.90;;;;;;5009175;28;20665;-70
2023/04/17 01:14:48;;;;;;;;;;;7.50;99.90;;;;;;5009818;28;19925;-70
2023/04/17 01:17:14;;;;;;;;;;;7.50;99.90;;;;;;5000392;28;20016;-70
2023/04/17 01:19:40;;;;;;;;;;;7.60;99.90;;;;;;5000969;28;20327;-70
2023/04/17 01:22:06;;;;;;;;;;;7.50;99.90;;;;;;4999290;28;20043;-70
2023/04/17 01:24:31;;;;;;;;;;;7.50;99.90;;;;;;5000644;28;20330;-70
2023/04/17 01:26:57;;;;;;;;;;;7.50;99.90;;;;;;5000941;28;19952;-69
2023/04/17 01:29:22;;;;;;;;;;;7.50;99.90;;;;;;5002517;28;19969;-70
2023/04/17 01:31:48;;;;;;;;;;;7.40;99.90;;;;;;5005920;28;20376;-69
2023/04/17 01:34:13;;;;;;;;;;;7.50;99.90;;;;;;5001863;28;19929;-70
2023/04/17 01:36:39;;;;;;;;;;;7.40;99.90;;;;;;5007389;28;19926;-72
2023/04/17 01:39:04;;;;;;;;;;;7.40;99.90;;;;;;5002747;28;19980;-69
2023/04/17 01:41:30;;;;;;;;;;;7.40;99.90;;;;;;5007955;28;19979;-69
2023/04/17 01:43:55;;;;;;;;;;;7.40;99.90;;;;;;5004078;28;19926;-70
2023/04/17 01:46:21;;;;;;;;;;;7.40;99.90;;;;;;5002358;28;20399;-70
2023/04/17 01:48:46;;;;;;;;;;;7.40;99.90;;;;;;5002065;28;19948;-70
2023/04/17 01:51:12;;;;;;;;;;;7.40;99.90;;;;;;5000642;28;19933;-70
2023/04/17 01:53:38;;;;;;;;;;;7.40;99.90;;;;;;5000660;28;20291;-70
2023/04/17 01:56:03;;;;;;;;;;;7.30;99.90;;;;;;5001564;28;20316;-73
2023/04/17 01:58:30;;;;;;;;;;;7.30;99.90;;;;;;5001692;28;19945;-70
2023/04/17 02:00:55;;;;;;;;;;;7.30;99.90;;;;;;4998946;28;19925;-70
2023/04/17 02:03:23;;;;;;;;;;;7.30;99.90;;;;;;5002741;28;20309;-70
2023/04/17 02:05:48;;;;;;;;;;;7.30;99.90;;;;;;5002988;28;20376;-70
2023/04/17 02:08:14;;;;;;;;;;;7.30;99.90;;;;;;5000230;28;19984;-70
2023/04/17 02:10:40;;;;;;;;;;;7.30;99.90;;;;;;5005650;28;19933;-69
2023/04/17 02:13:06;;;;;;;;;;;7.30;99.90;;;;;;5008673;28;19925;-69
2023/04/17 02:15:31;;;;;;;;;;;7.30;99.90;;;;;;5005516;28;20288;-70
2023/04/17 02:17:57;;;;;;;;;;;7.40;99.90;;;;;;5009279;28;19933;-70
2023/04/17 02:20:22;;;;;;;;;;;7.40;99.90;;;;;;5008313;28;19996;-69
2023/04/17 02:22:48;;;;;;;;;;;7.20;99.90;;;;;;5000918;28;19925;-69
2023/04/17 02:25:14;;;;;;;;;;;7.30;99.90;;;;;;5010644;28;19925;-70
2023/04/17 02:27:40;;;;;;;;;;;7.20;99.90;;;;;;5008773;28;19972;-69
2023/04/17 02:30:05;;;;;;;;;;;7.20;99.90;;;;;;5005942;28;19930;-69
2023/04/17 02:32:31;;;;;;;;;;;7.20;99.90;;;;;;5006910;28;19925;-69
2023/04/17 02:34:57;;;;;;;;;;;7.20;99.90;;;;;;5009093;28;19937;-69
2023/04/17 02:37:22;;;;;;;;;;;7.20;99.90;;;;;;5010437;28;19940;-69
2023/04/17 02:39:48;;;;;;;;;;;7.30;99.90;;;;;;5010117;28;20040;-70
2023/04/17 02:42:13;;;;;;;;;;;7.20;99.90;;;;;;5009990;28;19926;-69
2023/04/17 02:44:39;;;;;;;;;;;7.20;99.90;;;;;;5010605;28;19929;-69
2023/04/17 02:47:04;;;;;;;;;;;7.20;99.90;;;;;;5011677;28;19971;-69
2023/04/17 02:49:30;;;;;;;;;;;7.10;99.90;;;;;;5009967;28;19984;-70
2023/04/17 02:51:56;;;;;;;;;;;7.70;99.90;;;;;;5007909;28;19934;-70
2023/04/17 02:54:21;;;;;;;;;;;7.20;99.90;;;;;;5005238;28;19926;-69
2023/04/17 02:56:47;;;;;;;;;;;7.20;99.90;;;;;;5007616;28;19937;-70
2023/04/17 02:59:12;;;;;;;;;;;7.20;99.90;;;;;;5009201;28;19932;-68
2023/04/17 03:01:39;;;;;;;;;;;7.10;99.90;;;;;;5007825;28;19926;-68
2023/04/17 03:04:05;;;;;;;;;;;7.10;99.90;;;;;;5008265;28;19936;-69
2023/04/17 03:06:30;;;;;;;;;;;7.20;99.90;;;;;;5008474;28;20369;-70
2023/04/17 03:08:56;;;;;;;;;;;7.20;99.90;;;;;;5003192;28;19925;-69
2023/04/17 03:11:21;;;;;;;;;;;7.20;99.90;;;;;;5007768;28;19937;-69
2023/04/17 03:13:47;;;;;;;;;;;7.10;99.90;;;;;;5010346;28;19932;-69
2023/04/17 03:16:13;;;;;;;;;;;7.10;99.90;;;;;;5003609;28;20384;-70
2023/04/17 03:18:39;;;;;;;;;;;7.10;99.90;;;;;;5005860;28;19937;-70
2023/04/17 03:21:05;;;;;;;;;;;7.10;99.90;;;;;;5007078;28;19941;-70
2023/04/17 03:23:31;;;;;;;;;;;7.20;99.90;;;;;;5008619;28;20379;-70
2023/04/17 03:25:57;;;;;;;;;;;7.10;99.90;;;;;;5003029;28;19929;-69
2023/04/17 03:28:22;;;;;;;;;;;7.10;99.90;;;;;;5009034;28;20047;-69
2023/04/17 03:30:48;;;;;;;;;;;7.10;99.90;;;;;;5007725;28;19925;-69
2023/04/17 03:33:15;;;;;;;;;;;7.10;99.90;;;;;;5012542;28;19995;-69
2023/04/17 03:35:41;;;;;;;;;;;7.10;99.90;;;;;;5009355;28;20000;-69
2023/04/17 03:38:07;;;;;;;;;;;7.10;99.90;;;;;;5008765;28;19929;-70
2023/04/17 03:40:32;;;;;;;;;;;7.10;99.90;;;;;;5011378;28;19940;-70
2023/04/17 03:42:58;;;;;;;;;;;7.00;99.90;;;;;;5007517;28;20035;-70
2023/04/17 03:45:23;;;;;;;;;;;7.10;99.90;;;;;;5005625;28;19933;-70
2023/04/17 03:47:49;;;;;;;;;;;7.00;99.90;;;;;;5006126;28;19929;-69
2023/04/17 03:50:15;;;;;;;;;;;7.00;99.90;;;;;;5007470;28;19933;-68
2023/04/17 03:52:40;;;;;;;;;;;7.00;99.90;;;;;;5006404;28;20036;-70
2023/04/17 03:55:07;;;;;;;;;;;7.00;99.90;;;;;;5002549;28;19926;-69
2023/04/17 03:57:32;;;;;;;;;;;7.00;99.90;;;;;;5002686;28;19933;-69
2023/04/17 03:59:58;;;;;;;;;;;6.90;99.90;;;;;;5022443;28;19929;-69
2023/04/17 04:02:23;;;;;;;;;;;6.90;99.90;;;;;;5006812;28;19935;-70
2023/04/17 04:04:49;;;;;;;;;;;6.90;99.90;;;;;;5005707;28;20268;-69
2023/04/17 04:07:15;;;;;;;;;;;6.90;99.90;;;;;;5004598;28;19965;-70
2023/04/17 04:09:40;;;;;;;;;;;6.90;99.90;;;;;;5007458;28;19925;-70
2023/04/17 04:12:07;;;;;;;;;;;7.00;99.90;;;;;;5013159;28;19934;-69
2023/04/17 04:14:33;;;;;;;;;;;7.00;99.90;;;;;;5004974;28;19945;-70
2023/04/17 04:16:58;;;;;;;;;;;7.00;99.90;;;;;;5005389;28;19925;-69
2023/04/17 04:19:24;;;;;;;;;;;6.90;99.90;;;;;;5008658;28;20295;-70
2023/04/17 04:21:49;;;;;;;;;;;7.00;99.90;;;;;;5011413;28;19929;-70
2023/04/17 04:24:15;;;;;;;;;;;6.90;99.90;;;;;;5010876;28;20259;-70
2023/04/17 04:26:41;;;;;;;;;;;6.90;99.90;;;;;;5006648;28;20012;-69
2023/04/17 04:29:07;;;;;;;;;;;7.00;99.90;;;;;;5007359;28;20347;-69
2023/04/17 04:31:34;;;;;;;;;;;7.10;99.90;;;;;;5011476;28;19977;-69
2023/04/17 04:34:00;;;;;;;;;;;7.00;99.90;;;;;;5010143;28;19926;-69
2023/04/17 04:36:28;;;;;;;;;;;7.00;99.90;;;;;;5013554;28;19925;-69
2023/04/17 04:38:58;;;;;;;;;;;7.00;99.90;;;;;;5011693;28;19979;-70
2023/04/17 04:41:25;;;;;;;;;;;7.10;99.90;;;;;;5009072;28;20017;-69
2023/04/17 04:43:51;;;;;;;;;;;7.10;99.90;;;;;;5008930;28;20019;-69
2023/04/17 04:46:17;;;;;;;;;;;7.10;99.90;;;;;;5009637;28;19926;-69
2023/04/17 04:48:42;;;;;;;;;;;7.20;99.90;;;;;;5005679;28;20069;-69
2023/04/17 04:51:08;;;;;;;;;;;7.20;99.90;;;;;;5007216;28;19936;-69
2023/04/17 04:53:34;;;;;;;;;;;7.30;99.90;;;;;;5000636;28;20316;-69
2023/04/17 04:56:00;;;;;;;;;;;7.10;99.90;;;;;;5003059;28;20275;-69
2023/04/17 04:58:28;;;;;;;;;;;7.10;99.90;;;;;;4998437;28;19976;-69
2023/04/17 05:00:54;;;;;;;;;;;7.10;99.90;;;;;;5001900;28;19929;-68
2023/04/17 05:03:21;;;;;;;;;;;7.10;99.90;;;;;;5014746;28;19965;-69
2023/04/17 05:05:46;;;;;;;;;;;7.20;99.90;;;;;;5009598;28;19936;-68
2023/04/17 05:08:12;;;;;;;;;;;7.20;99.90;;;;;;5010940;28;19925;-69
2023/04/17 05:10:38;;;;;;;;;;;7.20;99.90;;;;;;5011592;28;19941;-70
2023/04/17 05:13:03;;;;;;;;;;;7.20;99.90;;;;;;5006225;28;19937;-68
2023/04/17 05:15:29;;;;;;;;;;;7.10;99.90;;;;;;5005650;28;19933;-70
2023/04/17 05:17:54;;;;;;;;;;;7.20;99.90;;;;;;5008297;28;19933;-70
2023/04/17 05:20:20;;;;;;;;;;;7.30;99.90;;;;;;5009240;28;19933;-70
2023/04/17 05:22:46;;;;;;;;;;;7.20;99.90;;;;;;5001353;28;19980;-70
2023/04/17 05:25:11;;;;;;;;;;;7.30;99.90;;;;;;5012025;28;19972;-69
2023/04/17 05:27:37;;;;;;;;;;;7.20;99.90;;;;;;5009308;28;19975;-70
2023/04/17 05:30:03;;;;;;;;;;;7.30;99.90;;;;;;5011660;28;19929;-70
2023/04/17 05:32:30;;;;;;;;;;;7.30;99.90;;;;;;5011229;28;19926;-70
2023/04/17 05:34:55;;;;;;;;;;;7.40;99.90;;;;;;5003262;28;20379;-69
2023/04/17 05:37:21;;;;;;;;;;;7.30;99.90;;;;;;5008308;28;19941;-69
2023/04/17 05:39:46;;;;;;;;;;;7.40;99.90;;;;;;5006881;28;19926;-69
2023/04/17 05:42:12;;;;;;;;;;;7.40;99.90;;;;;;5011509;28;19926;-70
2023/04/17 05:44:38;;;;;;;;;;;7.40;99.90;;;;;;5008632;28;20288;-72
2023/04/17 05:47:04;;;;;;;;;;;7.40;99.90;;;;;;5001214;28;20126;-70
2023/04/17 05:49:29;;;;;;;;;;;7.60;99.90;;;;;;5006536;28;19975;-69
2023/04/17 05:51:55;;;;;;;;;;;7.60;99.90;;;;;;5009289;28;19926;-69
2023/04/17 05:54:21;;;;;;;;;;;8.50;99.90;;;;;;5006142;28;19944;-70
2023/04/17 05:56:47;;;;;;;;;;;7.70;99.90;;;;;;5003319;28;19932;-69
2023/04/17 05:59:13;;;;;;;;;;;7.70;99.90;;;;;;5009902;28;19925;-70
2023/04/17 06:01:39;;;;;;;;;;;7.80;99.90;;;;;;5005718;28;20313;-69
2023/04/17 06:04:05;;;;;;;;;;;7.80;99.90;;;;;;5010195;28;20008;-70
2023/04/17 06:06:30;;;;;;;;;;;8.00;99.90;;;;;;5010322;28;19926;-68
2023/04/17 06:08:56;;;;;;;;;;;7.80;99.90;;;;;;5010646;28;20371;-69
2023/04/17 06:11:23;;;;;;;;;;;7.80;99.90;;;;;;5015218;28;19932;-69
2023/04/17 06:13:48;;;;;;;;;;;8.10;99.90;;;;;;5012734;28;19925;-70
2023/04/17 06:16:14;;;;;;;;;;;8.00;99.90;;;;;;5012795;28;19932;-70
2023/04/17 06:18:40;;;;;;;;;;;8.00;99.90;;;;;;5011967;28;20020;-70
2023/04/17 06:21:09;;;;;;;;;;;8.10;99.90;;;;;;5008438;28;19926;-69
2023/04/17 06:23:34;;;;;;;;;;;8.10;99.90;;;;;;5018715;28;20391;-68
2023/04/17 06:26:00;;;;;;;;;;;8.20;99.90;;;;;;5014295;28;19979;-69
2023/04/17 06:28:25;;;;;;;;;;;8.20;99.90;;;;;;5016069;28;19929;-69
2023/04/17 06:30:51;;;;;;;;;;;8.30;99.90;;;;;;5012504;28;19925;-69
2023/04/17 06:33:16;;;;;;;;;;;8.30;99.90;;;;;;5015947;28;19929;-69
2023/04/17 06:35:42;;;;;;;;;;;8.30;99.90;;;;;;5012331;28;19926;-69
2023/04/17 06:38:07;;;;;;;;;;;8.40;99.90;;;;;;5011985;28;19925;-69
2023/04/17 06:40:33;;;;;;;;;;;8.40;99.90;;;;;;5015905;28;19925;-69
2023/04/17 06:42:59;;;;;;;;;;;8.50;99.90;;;;;;4999457;28;19938;-69
2023/04/17 06:45:24;;;;;;;;;;;8.60;99.90;;;;;;5010474;28;19925;-69
2023/04/17 06:47:50;;;;;;;;;;;8.60;99.90;;;;;;5013515;28;19941;-69
2023/04/17 06:50:15;;;;;;;;;;;8.80;99.90;;;;;;5015381;28;19925;-69
2023/04/17 06:52:42;;;;;;;;;;;8.80;99.90;;;;;;5013827;28;19925;-69
2023/04/17 06:55:08;;;;;;;;;;;8.80;99.90;;;;;;5011840;28;19961;-69
2023/04/17 06:57:33;;;;;;;;;;;8.90;99.90;;;;;;5006927;28;19925;-69
2023/04/17 06:59:59;;;;;;;;;;;9.00;99.90;;;;;;5010481;28;20387;-69
2023/04/17 07:02:24;;;;;;;;;;;9.00;99.90;;;;;;5013420;28;19932;-69
2023/04/17 07:04:50;;;;;;;;;;;9.20;99.90;;;;;;5007674;28;19925;-70
2023/04/17 07:07:15;;;;;;;;;;;9.30;99.90;;;;;;5000558;28;20008;-69
2023/04/17 07:09:41;;;;;;;;;;;9.20;99.90;;;;;;5011248;28;19925;-69
2023/04/17 07:12:07;;;;;;;;;;;9.30;99.90;;;;;;5010164;28;19925;-70
2023/04/17 07:14:34;;;;;;;;;;;9.40;99.90;;;;;;4994087;28;20015;-70
2023/04/17 07:17:00;;;;;;;;;;;9.50;99.90;;;;;;5008708;28;19934;-69
2023/04/17 07:19:25;;;;;;;;;;;9.60;99.90;;;;;;5008429;28;20385;-70
2023/04/17 07:21:51;;;;;;;;;;;9.60;99.90;;;;;;5024092;28;19957;-69
2023/04/17 07:24:16;;;;;;;;;;;9.70;99.90;;;;;;5011035;28;19926;-69
2023/04/17 07:26:42;;;;;;;;;;;9.70;99.90;;;;;;5011533;28;19949;-69
2023/04/17 07:29:08;;;;;;;;;;;9.90;99.90;;;;;;5003923;28;19926;-69
2023/04/17 07:31:33;;;;;;;;;;;9.90;99.90;;;;;;5011319;28;20004;-70
2023/04/17 07:33:59;;;;;;;;;;;9.90;99.90;;;;;;5026471;28;19930;-70
2023/04/17 07:36:27;;;;;;;;;;;9.90;99.90;;;;;;4999230;28;19925;-70
2023/04/17 07:38:52;;;;;;;;;;;10.00;99.90;;;;;;5011077;28;20027;-70
2023/04/17 07:41:18;;;;;;;;;;;10.00;99.90;;;;;;5009604;28;20366;-69
2023/04/17 07:43:43;;;;;;;;;;;10.10;99.90;;;;;;5008102;28;19935;-70
2023/04/17 07:46:09;;;;;;;;;;;10.20;99.90;;;;;;5008382;28;19926;-70
2023/04/17 07:48:34;;;;;;;;;;;10.50;99.90;;;;;;5004846;28;20183;-70
2023/04/17 07:51:00;;;;;;;;;;;10.50;99.90;;;;;;5012212;28;19979;-70
2023/04/17 07:53:27;;;;;;;;;;;10.50;99.90;;;;;;5010395;28;19987;-70
2023/04/17 07:55:53;;;;;;;;;;;10.60;99.90;;;;;;5010719;28;19972;-70
2023/04/17 07:58:19;;;;;;;;;;;10.70;99.90;;;;;;5009862;28;20008;-68
2023/04/17 08:00:44;;;;;;;;;;;10.80;99.90;;;;;;5009880;28;20012;-68
2023/04/17 08:03:12;;;;;;;;;;;10.80;99.90;;;;;;5012758;28;19925;-68
2023/04/17 08:05:39;;;;;;;;;;;10.90;99.90;;;;;;5012032;28;20146;-69
2023/04/17 08:08:05;;;;;;;;;;;10.80;99.90;;;;;;5008942;28;19925;-68
2023/04/17 08:10:30;;;;;;;;;;;10.80;99.90;;;;;;5007111;28;19979;-68
2023/04/17 08:12:56;;;;;;;;;;;10.90;99.90;;;;;;5008353;28;20459;-68
2023/04/17 08:15:21;;;;;;;;;;;11.30;99.90;;;;;;5007231;28;19961;-67
2023/04/17 08:17:48;;;;;;;;;;;11.30;99.90;;;;;;5013338;28;19926;-68
2023/04/17 08:20:14;;;;;;;;;;;11.40;99.90;;;;;;5010266;28;20317;-68
2023/04/17 08:22:40;;;;;;;;;;;11.30;99.90;;;;;;5010568;28;20012;-68
2023/04/17 08:25:08;;;;;;;;;;;11.40;99.90;;;;;;5004611;28;19960;-69
2023/04/17 08:27:34;;;;;;;;;;;11.50;99.90;;;;;;5009266;28;19925;-69
2023/04/17 08:30:00;;;;;;;;;;;11.60;99.90;;;;;;5007418;28;20265;-68
2023/04/17 08:32:26;;;;;;;;;;;11.70;99.90;;;;;;5010852;28;19934;-69
2023/04/17 08:34:51;;;;;;;;;;;11.70;99.90;;;;;;5015618;28;19941;-69
2023/04/17 08:37:17;;;;;;;;;;;11.60;99.90;;;;;;5009196;28;19930;-70
2023/04/17 08:39:43;;;;;;;;;;;11.60;99.90;;;;;;5009171;28;19937;-69
2023/04/17 08:42:13;;;;;;;;;;;11.50;99.90;;;;;;5015850;28;19926;-69
2023/04/17 08:44:38;;;;;;;;;;;11.50;99.90;;;;;;5014252;28;19925;-70
2023/04/17 08:47:04;;;;;;;;;;;11.50;99.90;;;;;;5012915;28;19940;-69
2023/04/17 08:49:33;;;;;;;;;;;11.50;99.90;;;;;;5011590;28;19972;-69
2023/04/17 08:52:00;;;;;;;;;;;11.60;99.90;;;;;;5025326;28;19933;-69
2023/04/17 08:54:26;;;;;;;;;;;11.80;99.90;;;;;;5017728;28;19980;-70
2023/04/17 08:56:52;;;;;;;;;;;11.80;99.90;;;;;;5012912;28;19925;-69
2023/04/17 08:59:21;;;;;;;;;;;12.00;99.90;;;;;;5006023;28;19988;-70
2023/04/17 09:02:02;;;;;;;;;;;11.90;99.90;;;;;;5007035;28;19938;-69
2023/04/17 09:04:38;;;;;;;;;;;12.00;99.90;;;;;;5002328;28;19980;-69
2023/04/17 09:07:07;;;;;;;;;;;12.10;99.90;;;;;;5003567;28;20208;-70
2023/04/17 09:09:45;;;;;;;;;;;12.20;99.90;;;;;;5002567;28;20388;-71
2023/04/17 09:12:10;;;;;;;;;;;12.30;99.90;;;;;;5006865;28;20334;-70
2023/04/17 09:14:36;;;;;;;;;;;12.30;99.90;;;;;;5011615;28;19987;-70
2023/04/17 09:17:01;;;;;;;;;;;12.20;99.90;;;;;;5007653;28;19988;-71
2023/04/17 09:19:27;;;;;;;;;;;12.30;99.90;;;;;;4999378;28;19925;-69
2023/04/17 09:21:53;;;;;;;;;;;12.30;99.90;;;;;;5009309;28;19941;-69
2023/04/17 09:24:31;;;;;;;;;;;12.40;99.90;;;;;;5005193;28;19933;-70
2023/04/17 09:27:16;;;;;;;;;;;12.30;99.90;;;;;;5013106;28;19926;-70
2023/04/17 09:30:01;;;;;;;;;;;12.50;99.90;;;;;;5012028;28;20362;-70
2023/04/17 09:32:27;;;;;;;;;;;12.50;99.90;;;;;;5009213;28;20268;-70
2023/04/17 09:34:53;;;;;;;;;;;12.70;99.90;;;;;;5002212;28;19929;-70
2023/04/17 09:37:19;;;;;;;;;;;12.80;99.90;;;;;;5007491;28;19936;-69
2023/04/17 09:39:56;;;;;;;;;;;12.80;99.90;;;;;;4999461;28;20020;-70
2023/04/17 09:42:22;;;;;;;;;;;12.80;99.90;;;;;;5007747;28;19932;-69
2023/04/17 09:44:48;;;;;;;;;;;12.80;99.90;;;;;;5023180;28;19929;-69
2023/04/17 09:47:15;;;;;;;;;;;12.80;99.90;;;;;;5002232;28;20319;-68
2023/04/17 09:49:48;;;;;;;;;;;12.70;99.90;;;;;;4994947;28;19926;-69
2023/04/17 09:52:15;;;;;;;;;;;12.90;99.90;;;;;;5012248;28;20362;-69
2023/04/17 09:54:42;;;;;;;;;;;12.80;99.90;;;;;;5009717;28;20346;-68
2023/04/17 09:57:08;;;;;;;;;;;13.00;99.90;;;;;;4996764;28;19996;-69
2023/04/17 09:59:44;;;;;;;;;;;13.10;99.90;;;;;;5006384;28;19980;-69
2023/04/17 10:02:13;;;;;;;;;;;13.30;99.90;;;;;;5011625;28;19929;-70
2023/04/17 10:04:40;;;;;;;;;;;13.50;99.90;;;;;;5004993;28;19972;-69
2023/04/17 10:07:06;;;;;;;;;;;13.60;99.90;;;;;;5009451;28;20837;-69
2023/04/17 10:09:31;;;;;;;;;;;13.90;99.90;;;;;;5007458;28;19929;-70
2023/04/17 10:11:58;;;;;;;;;;;14.00;99.90;;;;;;5009597;28;20437;-69
2023/04/17 10:14:30;;;;;;;;;;;14.20;99.90;;;;;;5000405;28;20218;-69
2023/04/17 10:16:55;;;;;;;;;;;14.40;99.90;;;;;;5006056;28;19925;-69
2023/04/17 10:19:24;;;;;;;;;;;14.70;99.90;;;;;;5003350;28;19948;-69
2023/04/17 10:22:08;;;;;;;;;;;14.90;99.90;;;;;;5009937;28;19925;-69
2023/04/17 10:24:34;;;;;;;;;;;15.00;99.90;;;;;;4996538;28;19980;-68
2023/04/17 10:27:00;;;;;;;;;;;15.10;99.90;;;;;;5005982;28;19933;-69
2023/04/17 10:29:44;;;;;;;;;;;15.20;99.90;;;;;;5007028;28;19983;-69
2023/04/17 10:32:09;;;;;;;;;;;15.40;99.90;;;;;;5004914;28;19977;-69
2023/04/17 10:34:36;;;;;;;;;;;15.40;99.90;;;;;;5004452;28;20371;-69
2023/04/17 10:37:02;;;;;;;;;;;15.40;99.90;;;;;;5008464;28;19925;-69
2023/04/17 10:39:47;;;;;;;;;;;15.60;99.90;;;;;;5008981;28;19929;-69
2023/04/17 10:42:16;;;;;;;;;;;15.70;99.90;;;;;;5000062;28;19933;-69
2023/04/17 10:44:43;;;;;;;;;;;15.60;99.90;;;;;;5006420;28;19930;-69
2023/04/17 10:47:09;;;;;;;;;;;15.60;99.90;;;;;;5010087;28;19937;-69
2023/04/17 10:49:47;;;;;;;;;;;15.70;99.90;;;;;;5010136;28;19925;-69
2023/04/17 10:52:31;;;;;;;;;;;16.00;99.90;;;;;;5009838;28;19979;-69
2023/04/17 10:55:05;;;;;;;;;;;16.20;99.90;;;;;;5009082;28;19926;-69
2023/04/17 10:57:49;;;;;;;;;;;16.30;99.90;;;;;;5012836;28;19944;-69
2023/04/17 11:00:15;;;;;;;;;;;16.10;99.90;;;;;;5007248;28;20415;-70
2023/04/17 11:02:44;;;;;;;;;;;15.90;99.90;;;;;;5004357;28;20511;-70
2023/04/17 11:05:10;;;;;;;;;;;15.90;99.90;;;;;;5013603;28;19925;-69
2023/04/17 11:07:35;;;;;;;;;;;16.10;99.90;;;;;;5010061;28;19933;-69
2023/04/17 11:10:05;;;;;;;;;;;16.60;99.90;;;;;;5009572;28;19976;-70
2023/04/17 11:12:31;;;;;;;;;;;16.80;99.90;;;;;;5012316;28;19941;-69
2023/04/17 11:15:03;;;;;;;;;;;17.00;99.90;;;;;;5009477;28;19956;-69
2023/04/17 11:17:28;;;;;;;;;;;17.20;99.90;;;;;;5011428;28;19929;-69
2023/04/17 11:19:55;;;;;;;;;;;16.80;99.90;;;;;;5008213;28;19926;-69
2023/04/17 11:22:20;;;;;;;;;;;17.10;99.90;;;;;;5006174;28;19926;-69
2023/04/17 11:24:49;;;;;;;;;;;17.20;99.90;;;;;;5005652;28;19984;-69
2023/04/17 11:27:14;;;;;;;;;;;17.40;99.90;;;;;;5009966;28;20342;-69
2023/04/17 11:29:40;;;;;;;;;;;17.50;99.90;;;;;;5013342;28;19925;-69
2023/04/17 11:32:09;;;;;;;;;;;17.50;99.90;;;;;;5012280;28;20213;-69
2023/04/17 11:34:35;;;;;;;;;;;17.40;99.90;;;;;;5000143;28;19926;-69
2023/04/17 11:37:01;;;;;;;;;;;18.00;99.90;;;;;;4997809;28;19933;-69
2023/04/17 11:39:28;;;;;;;;;;;17.50;99.90;;;;;;5004595;28;19965;-69
2023/04/17 11:41:55;;;;;;;;;;;17.80;99.90;;;;;;4996049;28;20356;-69
2023/04/17 11:44:21;;;;;;;;;;;18.20;99.90;;;;;;5010804;28;19983;-70
2023/04/17 11:46:57;;;;;;;;;;;18.30;99.90;;;;;;5013557;28;20008;-70
2023/04/17 11:49:24;;;;;;;;;;;18.10;99.90;;;;;;5011713;28;19925;-69
2023/04/17 11:51:50;;;;;;;;;;;17.60;99.90;;;;;;5024646;28;19972;-69
2023/04/17 11:54:36;;;;;;;;;;;17.50;99.90;;;;;;5007742;28;19934;-69
2023/04/17 11:57:01;;;;;;;;;;;17.40;99.90;;;;;;5014378;28;19961;-68
2023/04/17 11:59:34;;;;;;;;;;;17.20;99.90;;;;;;5012657;28;19981;-69
2023/04/17 12:02:00;;;;;;;;;;;17.20;99.90;;;;;;5000615;28;20346;-72
2023/04/17 12:04:27;;;;;;;;;;;17.10;99.90;;;;;;5013156;28;19936;-70
2023/04/17 12:06:53;;;;;;;;;;;16.90;99.90;;;;;;4998791;28;19936;-69
2023/04/17 12:09:23;;;;;;;;;;;17.30;99.90;;;;;;5010017;28;20016;-69
2023/04/17 12:11:49;;;;;;;;;;;17.50;99.90;;;;;;5013884;28;19933;-70
2023/04/17 12:14:15;;;;;;;;;;;17.60;99.90;;;;;;5010374;28;20443;-69
2023/04/17 12:16:40;;;;;;;;;;;17.80;99.90;;;;;;5013912;28;19976;-69
2023/04/17 12:19:11;;;;;;;;;;;18.30;99.90;;;;;;5013962;28;19956;-69
2023/04/17 12:21:37;;;;;;;;;;;18.20;99.90;;;;;;5003228;28;19933;-70
2023/04/17 12:24:03;;;;;;;;;;;18.40;99.90;;;;;;5013080;28;19933;-69
2023/04/17 12:26:28;;;;;;;;;;;18.10;99.90;;;;;;5011065;28;19932;-70
2023/04/17 12:28:55;;;;;;;;;;;18.00;99.90;;;;;;5012906;28;19925;-70
2023/04/17 12:31:20;;;;;;;;;;;18.10;99.90;;;;;;5000676;28;19925;-71
2023/04/17 12:33:46;;;;;;;;;;;18.00;99.60;;;;;;5006167;28;20291;-70
2023/04/17 12:36:12;;;;;;;;;;;18.40;99.90;;;;;;5006591;28;20372;-69
2023/04/17 12:38:37;;;;;;;;;;;18.30;97.70;;;;;;5006894;28;19925;-70
2023/04/17 12:41:03;;;;;;;;;;;18.20;99.50;;;;;;5008428;28;19987;-70
2023/04/17 12:43:30;;;;;;;;;;;18.00;99.90;;;;;;5004856;28;19929;-71
2023/04/17 12:45:57;;;;;;;;;;;18.40;99.40;;;;;;5007401;28;20403;-70
2023/04/17 12:48:22;;;;;;;;;;;18.50;98.50;;;;;;5010760;28;20387;-70
2023/04/17 12:50:48;;;;;;;;;;;18.50;99.90;;;;;;5010514;28;19925;-70
2023/04/17 12:53:14;;;;;;;;;;;19.10;97.90;;;;;;5008009;28;19926;-70
2023/04/17 12:55:40;;;;;;;;;;;18.90;96.90;;;;;;5011473;28;19929;-69
2023/04/17 12:58:11;;;;;;;;;;;19.40;97.90;;;;;;5011721;28;19933;-70
2023/04/17 13:00:37;;;;;;;;;;;19.60;96.90;;;;;;5007796;28;19925;-70
2023/04/17 13:03:03;;;;;;;;;;;20.10;95.20;;;;;;5015566;28;19925;-70
2023/04/17 13:05:29;;;;;;;;;;;19.80;95.90;;;;;;5010560;28;20407;-70
2023/04/17 13:07:55;;;;;;;;;;;19.60;95.20;;;;;;5017154;28;19932;-71
2023/04/17 13:10:21;;;;;;;;;;;19.70;95.10;;;;;;5017900;28;19976;-71
2023/04/17 13:12:47;;;;;;;;;;;19.60;94.60;;;;;;5009735;28;19975;-71
2023/04/17 13:15:13;;;;;;;;;;;19.80;95.10;;;;;;5000778;28;19933;-71
2023/04/17 13:17:39;;;;;;;;;;;20.00;93.50;;;;;;5012733;28;20403;-70
2023/04/17 13:20:05;;;;;;;;;;;20.10;93.50;;;;;;5005059;28;19948;-70
2023/04/17 13:22:31;;;;;;;;;;;20.10;94.60;;;;;;5005540;28;20372;-70
2023/04/17 13:24:57;;;;;;;;;;;20.30;93.30;;;;;;5008620;28;19932;-70
2023/04/17 13:27:24;;;;;;;;;;;20.10;93.90;;;;;;4994421;28;19988;-70
2023/04/17 13:29:49;;;;;;;;;;;20.50;93.90;;;;;;4998721;28;19941;-70
2023/04/17 13:32:15;;;;;;;;;;;20.80;92.20;;;;;;5005051;28;20039;-69
2023/04/17 13:34:41;;;;;;;;;;;20.80;92.40;;;;;;5007949;28;19933;-70
2023/04/17 13:37:06;;;;;;;;;;;20.80;91.20;;;;;;5011084;28;19979;-69
2023/04/17 13:39:32;;;;;;;;;;;20.20;91.90;;;;;;5003782;28;19925;-69
2023/04/17 13:41:58;;;;;;;;;;;19.60;93.20;;;;;;5020061;28;19925;-70
2023/04/17 13:44:23;;;;;;;;;;;18.90;93.60;;;;;;5007716;28;19933;-70
2023/04/17 13:46:49;;;;;;;;;;;19.00;94.10;;;;;;5007342;28;19933;-69
2023/04/17 13:49:15;;;;;;;;;;;19.10;94.60;;;;;;5010028;28;19933;-69
2023/04/17 13:51:40;;;;;;;;;;;19.40;93.70;;;;;;5010406;28;19980;-69
2023/04/17 13:54:07;;;;;;;;;;;19.80;91.80;;;;;;5007321;28;19933;-70
2023/04/17 13:56:32;;;;;;;;;;;19.50;91.60;;;;;;5006421;28;20448;-70
2023/04/17 13:58:58;;;;;;;;;;;19.60;93.20;;;;;;5012421;28;19956;-69
2023/04/17 14:01:23;;;;;;;;;;;19.90;91.70;;;;;;5010061;28;19933;-69
2023/04/17 14:03:49;;;;;;;;;;;20.10;90.80;;;;;;5010311;28;19948;-70
2023/04/17 14:06:16;;;;;;;;;;;19.90;90.60;;;;;;5005372;28;20587;-71
2023/04/17 14:08:42;;;;;;;;;;;19.70;88.70;;;;;;5004828;28;20382;-70
2023/04/17 14:11:08;;;;;;;;;;;19.20;87.90;;;;;;5002094;28;20029;-71
2023/04/17 14:13:34;;;;;;;;;;;18.90;90.70;;;;;;5001734;28;20063;-71
2023/04/17 14:15:59;;;;;;;;;;;18.70;90.40;;;;;;5004268;28;19987;-70
2023/04/17 14:18:25;;;;;;;;;;;17.80;91.50;;;;;;5009272;28;20400;-70
2023/04/17 14:20:54;;;;;;;;;;;17.10;92.10;;;;;;5006588;28;19926;-70